Terminal Aerodrome Forecast
Issued by NWS

Home | Current Version | Previous Version | Text Only | Print | Product List | Glossary On
Versions: 1 2 3 4 5 6 7 8 9 10 11 12 13 14 15 16 17 18 19 20 21
000
FTUS42 KTBW 080522
TAFPIE
TAF
KPIE 080522Z 0806/0906 34005KT P6SM SCT020 SCT300
      TEMPO 0806/0808 BKN020
     FM080900 36006KT P6SM SCT010
     FM081400 36008KT P6SM SCT015 SCT080
     FM081800 34009KT P6SM SCT030 SCT080 BKN150=

USA.gov is the U.S. government's official web portal to all federal, state and local government web resources and services.